createdAt,value
2019-03-30T00:03:56.490Z,8.39
2019-03-30T00:08:03.875Z,8.40
2019-03-30T00:12:09.606Z,8.51
2019-03-30T00:16:15.297Z,8.39
2019-03-30T00:20:32.164Z,8.37
2019-03-30T00:24:38.026Z,8.37
2019-03-30T00:28:43.760Z,7.97
2019-03-30T00:33:08.259Z,8.23
2019-03-30T00:37:14.085Z,8.21
2019-03-30T00:41:19.824Z,8.13
2019-03-30T00:45:37.529Z,7.91
2019-03-30T00:49:52.118Z,7.85
2019-03-30T00:58:15.144Z,8.20
2019-03-30T01:02:22.997Z,8.29
2019-03-30T01:06:28.751Z,8.27
2019-03-30T01:10:34.514Z,8.24
2019-03-30T01:14:52.929Z,8.02
2019-03-30T01:18:58.709Z,8.02
2019-03-30T01:23:18.147Z,7.84
2019-03-30T01:27:23.835Z,7.95
2019-03-30T01:31:34.244Z,7.99
2019-03-30T01:35:41.953Z,7.77
2019-03-30T01:39:47.737Z,7.95
2019-03-30T01:43:54.365Z,8.16
2019-03-30T01:48:11.992Z,8.21
2019-03-30T01:52:18.443Z,8.27
2019-03-30T02:01:01.307Z,8.08
2019-03-30T02:05:09.451Z,8.21
2019-03-30T02:09:15.212Z,8.11
2019-03-30T02:13:21.145Z,8.16
2019-03-30T02:17:50.869Z,8.12
2019-03-30T02:22:10.837Z,8.16
2019-03-30T02:31:00.002Z,7.83
2019-03-30T02:35:08.859Z,7.83
2019-03-30T02:39:14.652Z,7.93
2019-03-30T02:43:21.922Z,7.84
2019-03-30T02:47:27.657Z,7.84
2019-03-30T02:51:52.477Z,7.77
2019-03-30T02:56:00.377Z,7.74
2019-03-30T03:00:25.835Z,7.84
2019-03-30T03:04:31.548Z,7.74
2019-03-30T03:08:37.329Z,7.64
2019-03-30T03:12:43.551Z,7.54
2019-03-30T03:16:49.352Z,7.48
2019-03-30T03:21:07.225Z,7.35
2019-03-30T03:25:13.830Z,7.19
2019-03-30T03:29:19.600Z,7.19
2019-03-30T03:33:25.251Z,7.32
2019-03-30T03:37:44.742Z,7.13
2019-03-30T03:41:57.406Z,6.95
2019-03-30T03:46:14.430Z,7.00
2019-03-30T03:50:57.773Z,6.88
2019-03-30T04:00:20.620Z,6.73
2019-03-30T04:13:54.148Z,6.90
2019-03-30T04:17:59.872Z,7.12
2019-03-30T04:22:05.715Z,6.92
2019-03-30T04:26:11.506Z,6.91
2019-03-30T04:30:17.217Z,6.66
2019-03-30T04:34:22.928Z,6.86
2019-03-30T04:38:28.773Z,7.04
2019-03-30T04:42:34.459Z,7.07
2019-03-30T04:46:40.295Z,7.19
2019-03-30T04:50:45.975Z,7.28
2019-03-30T04:54:51.718Z,7.39
2019-03-30T04:58:57.506Z,7.10
2019-03-30T05:03:03.260Z,6.94
2019-03-30T05:07:09.036Z,7.08
2019-03-30T05:11:14.891Z,6.97
2019-03-30T05:15:20.566Z,6.92
2019-03-30T05:19:26.620Z,6.78
2019-03-30T05:23:32.288Z,6.76
2019-03-30T05:27:38.031Z,6.72
2019-03-30T05:31:43.770Z,6.66
2019-03-30T05:35:49.458Z,6.50
2019-03-30T05:39:55.323Z,6.53
2019-03-30T05:44:01.015Z,6.65
2019-03-30T05:48:06.754Z,6.53
2019-03-30T05:52:25.928Z,6.39
2019-03-30T05:56:25.632Z,6.62
2019-03-30T06:00:31.360Z,6.70
2019-03-30T06:04:37.226Z,6.92
2019-03-30T06:08:42.964Z,6.97
2019-03-30T06:12:48.664Z,7.02
2019-03-30T06:16:54.689Z,7.01
2019-03-30T06:21:00.350Z,7.20
2019-03-30T06:25:06.086Z,7.27
2019-03-30T06:33:36.386Z,7.41
2019-03-30T06:37:53.681Z,7.61
2019-03-30T06:41:59.384Z,7.63
2019-03-30T06:46:05.120Z,7.77
2019-03-30T06:50:11.266Z,7.93
2019-03-30T06:54:17.231Z,8.19
2019-03-30T06:58:23.023Z,8.33
2019-03-30T07:07:05.988Z,8.89
2019-03-30T07:11:50.857Z,8.89
2019-03-30T07:20:33.954Z,9.47
2019-03-30T07:24:39.712Z,9.81
2019-03-30T07:28:47.156Z,10.15
2019-03-30T07:32:57.929Z,10.47
2019-03-30T07:37:03.718Z,10.83
2019-03-30T07:41:09.354Z,11.01
2019-03-30T07:45:26.500Z,11.15
2019-03-30T07:49:53.714Z,11.26
2019-03-30T07:53:59.465Z,11.53
2019-03-30T07:58:24.011Z,12.05
2019-03-30T08:02:29.762Z,12.05
2019-03-30T08:06:35.491Z,12.34
2019-03-30T08:10:42.548Z,12.57
2019-03-30T08:14:48.242Z,12.95
2019-03-30T08:18:54.137Z,12.96
2019-03-30T08:22:59.958Z,13.14
2019-03-30T08:27:05.826Z,13.25
2019-03-30T08:31:11.887Z,13.49
2019-03-30T08:35:20.250Z,13.65
2019-03-30T08:39:26.360Z,13.75
2019-03-30T08:43:32.263Z,14.20
2019-03-30T08:47:40.371Z,14.39
2019-03-30T08:51:46.595Z,15.08
2019-03-30T08:55:52.597Z,15.54
2019-03-30T08:59:58.444Z,15.65
2019-03-30T09:04:04.433Z,15.58
2019-03-30T09:08:10.493Z,15.76
2019-03-30T09:12:16.299Z,16.10
2019-03-30T09:16:34.722Z,16.32
2019-03-30T09:20:40.525Z,16.53
2019-03-30T09:24:47.943Z,16.74
2019-03-30T09:28:54.066Z,16.73
2019-03-30T09:37:32.257Z,16.67
2019-03-30T09:41:38.161Z,16.96
2019-03-30T09:45:44.140Z,17.11
2019-03-30T09:49:50.284Z,17.03
2019-03-30T09:53:56.250Z,17.14
2019-03-30T09:58:02.648Z,17.08
2019-03-30T10:02:08.546Z,17.61
2019-03-30T10:06:14.409Z,17.79
2019-03-30T10:10:20.110Z,17.85
2019-03-30T10:14:25.805Z,17.98
2019-03-30T10:18:31.540Z,18.33
2019-03-30T10:22:37.531Z,17.72
2019-03-30T10:26:43.228Z,17.82
2019-03-30T10:30:48.968Z,17.90
2019-03-30T10:34:54.694Z,18.12
2019-03-30T10:39:00.339Z,18.07
2019-03-30T10:43:07.672Z,18.01
2019-03-30T10:47:13.523Z,18.39
2019-03-30T10:51:19.514Z,18.56
2019-03-30T10:55:25.456Z,18.98
2019-03-30T10:59:31.267Z,18.34
2019-03-30T11:03:37.028Z,19.22
2019-03-30T11:07:42.776Z,19.44
2019-03-30T11:16:20.221Z,19.38
2019-03-30T11:20:27.692Z,19.07
2019-03-30T11:24:33.917Z,19.18
2019-03-30T11:28:59.217Z,19.48
2019-03-30T11:33:06.078Z,19.00
2019-03-30T11:37:12.527Z,18.46
2019-03-30T11:41:18.334Z,18.95
2019-03-30T11:45:24.265Z,19.59
2019-03-30T11:49:31.522Z,18.89
2019-03-30T11:53:38.578Z,19.36
2019-03-30T11:57:48.622Z,19.12
2019-03-30T12:01:54.406Z,19.12
2019-03-30T12:06:00.138Z,19.11
2019-03-30T12:10:07.394Z,19.85
2019-03-30T12:14:13.121Z,19.25
2019-03-30T12:18:19.493Z,20.02
2019-03-30T12:27:32.326Z,19.98
2019-03-30T12:31:38.136Z,19.98
2019-03-30T12:35:43.916Z,20.22
2019-03-30T12:39:49.780Z,20.20
2019-03-30T12:43:55.590Z,19.56
2019-03-30T12:48:04.655Z,19.90
2019-03-30T12:52:29.342Z,20.50
2019-03-30T12:56:35.086Z,20.80
2019-03-30T13:00:40.875Z,21.09
2019-03-30T13:04:46.594Z,20.52
2019-03-30T13:08:52.290Z,19.04
2019-03-30T13:12:58.020Z,19.49
2019-03-30T13:17:03.776Z,19.10
2019-03-30T13:21:09.546Z,19.60
2019-03-30T13:25:15.325Z,20.12
2019-03-30T13:29:21.138Z,19.61
2019-03-30T13:38:20.652Z,20.30
2019-03-30T13:42:30.951Z,21.22
2019-03-30T13:46:36.635Z,20.91
2019-03-30T13:50:44.112Z,21.70
2019-03-30T13:54:49.954Z,21.26
2019-03-30T13:58:57.105Z,22.25
2019-03-30T14:03:03.007Z,21.96
2019-03-30T14:07:09.001Z,22.72
2019-03-30T14:11:14.688Z,22.35
2019-03-30T14:19:24.714Z,21.23
2019-03-30T14:23:30.723Z,22.15
2019-03-30T14:27:36.440Z,23.60
2019-03-30T14:31:42.164Z,23.05
2019-03-30T14:35:48.020Z,21.71
2019-03-30T14:39:53.729Z,23.67
2019-03-30T14:44:18.675Z,23.74
2019-03-30T14:48:24.402Z,23.13
2019-03-30T14:52:30.095Z,21.92
2019-03-30T14:56:45.359Z,23.65
2019-03-30T15:01:03.317Z,23.60
2019-03-30T15:05:54.408Z,24.63
2019-03-30T15:10:00.407Z,26.70
2019-03-30T15:14:06.341Z,24.12
2019-03-30T15:18:12.103Z,24.17
2019-03-30T15:22:18.166Z,25.01
2019-03-30T15:26:23.876Z,23.72
2019-03-30T15:30:29.655Z,23.01
2019-03-30T15:34:35.458Z,21.78
2019-03-30T15:38:41.165Z,22.93
2019-03-30T15:42:46.938Z,22.04
2019-03-30T15:46:52.652Z,22.76
2019-03-30T15:55:16.798Z,22.65
2019-03-30T15:59:22.483Z,22.42
2019-03-30T16:03:28.205Z,23.51
2019-03-30T16:07:33.904Z,23.86
2019-03-30T16:11:40.070Z,23.23
2019-03-30T16:15:45.781Z,21.27
2019-03-30T16:19:54.310Z,22.40
2019-03-30T16:24:00.027Z,24.27
2019-03-30T16:28:05.698Z,23.79
2019-03-30T16:32:11.370Z,24.22
2019-03-30T16:36:17.091Z,23.76
2019-03-30T16:40:22.860Z,23.29
2019-03-30T16:44:28.529Z,22.64
2019-03-30T16:48:34.240Z,21.75
2019-03-30T16:52:41.107Z,22.04
2019-03-30T16:56:53.563Z,21.02
2019-03-30T17:00:59.369Z,21.54
2019-03-30T17:05:05.662Z,21.69
2019-03-30T17:09:12.948Z,22.55
2019-03-30T17:13:18.805Z,22.59
2019-03-30T17:17:24.578Z,21.95
2019-03-30T17:21:30.313Z,19.92
2019-03-30T17:25:36.058Z,21.58
2019-03-30T17:29:42.168Z,19.93
2019-03-30T17:33:48.329Z,19.69
2019-03-30T17:37:54.138Z,18.61
2019-03-30T17:42:00.002Z,18.19
2019-03-30T17:46:05.835Z,17.89
2019-03-30T17:50:32.242Z,17.78
2019-03-30T17:54:39.882Z,18.51
2019-03-30T17:58:55.061Z,18.39
2019-03-30T18:03:01.145Z,18.24
2019-03-30T18:07:13.783Z,17.65
2019-03-30T18:11:25.737Z,18.06
2019-03-30T18:15:34.501Z,17.52
2019-03-30T18:24:13.047Z,17.13
2019-03-30T18:28:26.960Z,16.92
2019-03-30T18:32:45.526Z,16.25
2019-03-30T18:37:02.465Z,16.50
2019-03-30T18:41:08.236Z,16.96
2019-03-30T18:49:51.968Z,16.49
2019-03-30T18:54:23.786Z,16.38
2019-03-30T18:58:40.938Z,15.84
2019-03-30T19:02:55.941Z,15.63
2019-03-30T19:07:01.722Z,15.01
2019-03-30T19:11:07.498Z,14.86
2019-03-30T19:15:13.160Z,14.66
2019-03-30T19:19:18.782Z,14.80
2019-03-30T19:23:24.439Z,14.14
2019-03-30T19:27:30.883Z,14.21
2019-03-30T19:31:36.713Z,14.08
2019-03-30T19:35:42.399Z,14.33
2019-03-30T19:39:48.099Z,14.84
2019-03-30T19:43:53.888Z,14.83
2019-03-30T19:47:59.690Z,14.62
2019-03-30T19:52:05.971Z,14.06
2019-03-30T19:56:12.040Z,12.97
2019-03-30T20:05:19.328Z,12.24
2019-03-30T20:09:25.018Z,12.74
2019-03-30T20:13:30.739Z,12.47
2019-03-30T20:17:36.520Z,12.56
2019-03-30T20:26:00.431Z,12.86
2019-03-30T20:30:18.715Z,12.35
2019-03-30T20:34:24.436Z,11.61
2019-03-30T20:38:30.937Z,11.66
2019-03-30T20:42:36.704Z,11.69
2019-03-30T20:46:43.798Z,11.58
2019-03-30T20:50:55.292Z,11.63
2019-03-30T20:55:01.044Z,11.25
2019-03-30T20:59:06.788Z,11.65
2019-03-30T21:03:12.928Z,11.31
2019-03-30T21:07:20.843Z,11.09
2019-03-30T21:11:26.559Z,11.77
2019-03-30T21:15:32.290Z,11.66
2019-03-30T21:19:38.123Z,11.65
2019-03-30T21:23:43.832Z,11.54
2019-03-30T21:27:49.540Z,11.27
2019-03-30T21:31:55.210Z,10.97
2019-03-30T21:36:00.981Z,11.29
2019-03-30T21:40:07.108Z,11.08
2019-03-30T21:44:22.059Z,10.65
2019-03-30T21:48:39.704Z,10.16
2019-03-30T21:52:45.515Z,10.18
2019-03-30T21:56:51.296Z,10.50
2019-03-30T22:00:59.848Z,10.57
2019-03-30T22:05:10.290Z,10.95
2019-03-30T22:09:16.067Z,11.03
2019-03-30T22:13:22.086Z,10.43
2019-03-30T22:17:28.131Z,9.80
2019-03-30T22:21:34.128Z,10.70
2019-03-30T22:25:39.896Z,10.43
2019-03-30T22:29:45.578Z,9.58
2019-03-30T22:33:51.279Z,9.54
2019-03-30T22:37:56.982Z,9.24
2019-03-30T22:42:02.639Z,9.30
2019-03-30T22:46:09.488Z,8.88
2019-03-30T22:50:15.207Z,9.48
2019-03-30T22:54:20.963Z,9.77
2019-03-30T22:58:26.667Z,9.79
2019-03-30T23:02:32.676Z,9.64
2019-03-30T23:06:38.362Z,9.55
2019-03-30T23:10:44.147Z,8.91
2019-03-30T23:14:49.847Z,8.88
2019-03-30T23:18:55.636Z,8.88
2019-03-30T23:23:01.391Z,9.00
2019-03-30T23:27:07.086Z,9.21
2019-03-30T23:31:12.928Z,9.40
2019-03-30T23:35:18.788Z,9.40
2019-03-30T23:39:24.646Z,9.60
2019-03-30T23:43:30.414Z,9.68
2019-03-30T23:47:36.079Z,9.35
2019-03-30T23:51:41.873Z,9.27
2019-03-30T23:55:47.686Z,9.44
2019-03-30T23:59:53.422Z,9.10
